sensor_id;sensor_type;location;lat;lon;timestamp;pressure;altitude;pressure_sealevel;temperature;humidity
57904;BME280;43720;47.462;19.030;2023-06-14T03:57:43;100146.63;;;13.84;100.00
57904;BME280;43720;47.462;19.030;2023-06-14T04:00:47;100146.59;;;13.88;100.00
57904;BME280;43720;47.462;19.030;2023-06-14T04:03:50;100153.63;;;13.85;100.00
57904;BME280;43720;47.462;19.030;2023-06-14T04:06:52;100149.22;;;13.85;100.00
57904;BME280;43720;47.462;19.030;2023-06-14T04:09:55;100159.75;;;13.91;100.00
57904;BME280;43720;47.462;19.030;2023-06-14T04:12:57;100157.03;;;14.13;100.00
57904;BME280;43720;47.462;19.030;2023-06-14T04:16:00;100162.25;;;14.27;100.00
57904;BME280;43720;47.462;19.030;2023-06-14T04:19:03;100162.22;;;14.34;100.00
57904;BME280;43720;47.462;19.030;2023-06-14T04:22:05;100164.84;;;14.37;100.00
57904;BME280;43720;47.462;19.030;2023-06-14T04:25:08;100176.19;;;14.44;100.00
57904;BME280;43720;47.462;19.030;2023-06-14T04:28:12;100174.47;;;14.35;100.00
57904;BME280;43720;47.462;19.030;2023-06-14T04:31:15;100174.47;;;14.49;98.93
57904;BME280;43720;47.462;19.030;2023-06-14T04:34:19;100175.31;;;14.48;100.00
57904;BME280;43720;47.462;19.030;2023-06-14T04:37:22;100176.19;;;14.55;100.00
57904;BME280;43720;47.462;19.030;2023-06-14T04:40:24;100171.59;;;14.89;97.92
57904;BME280;43720;47.462;19.030;2023-06-14T04:43:27;100171.53;;;14.97;96.87
57904;BME280;43720;47.462;19.030;2023-06-14T04:46:30;100174.16;;;15.03;96.14
57904;BME280;43720;47.462;19.030;2023-06-14T04:49:34;100181.22;;;14.95;97.11
57904;BME280;43720;47.462;19.030;2023-06-14T04:52:37;100181.16;;;15.02;97.36
57904;BME280;43720;47.462;19.030;2023-06-14T04:55:39;100175.84;;;15.08;96.32
57904;BME280;43720;47.462;19.030;2023-06-14T04:58:43;100184.53;;;15.20;94.46
57904;BME280;43720;47.462;19.030;2023-06-14T05:01:46;100181.88;;;15.24;94.45
57904;BME280;43720;47.462;19.030;2023-06-14T05:04:52;100176.56;;;15.29;93.49
57904;BME280;43720;47.462;19.030;2023-06-14T05:07:55;100182.69;;;15.32;95.72
57904;BME280;43720;47.462;19.030;2023-06-14T05:10:58;100181.78;;;15.35;94.55
57904;BME280;43720;47.462;19.030;2023-06-14T05:14:00;100184.28;;;15.53;92.79
57904;BME280;43720;47.462;19.030;2023-06-14T05:17:04;100178.84;;;15.72;90.47
57904;BME280;43720;47.462;19.030;2023-06-14T05:20:07;100176.28;;;15.69;91.73
57904;BME280;43720;47.462;19.030;2023-06-14T05:23:09;100173.41;;;15.90;90.38
57904;BME280;43720;47.462;19.030;2023-06-14T05:26:17;100182.94;;;16.03;89.68
57904;BME280;43720;47.462;19.030;2023-06-14T05:29:20;100173.19;;;16.11;89.32
57904;BME280;43720;47.462;19.030;2023-06-14T05:32:22;100181.91;;;16.17;88.86
57904;BME280;43720;47.462;19.030;2023-06-14T05:35:25;100187.81;;;16.38;90.06
57904;BME280;43720;47.462;19.030;2023-06-14T05:38:28;100182.47;;;16.43;90.47
57904;BME280;43720;47.462;19.030;2023-06-14T05:41:31;100179.44;;;16.71;85.37
57904;BME280;43720;47.462;19.030;2023-06-14T05:44:33;100185.03;;;16.48;86.52
57904;BME280;43720;47.462;19.030;2023-06-14T05:47:36;100174.75;;;16.26;87.12
57904;BME280;43720;47.462;19.030;2023-06-14T05:50:38;100188.94;;;16.16;88.89
57904;BME280;43720;47.462;19.030;2023-06-14T05:53:41;100180.84;;;16.31;88.13
57904;BME280;43720;47.462;19.030;2023-06-14T05:56:43;100187.72;;;16.46;88.01
57904;BME280;43720;47.462;19.030;2023-06-14T05:59:46;100187.62;;;16.51;88.08
57904;BME280;43720;47.462;19.030;2023-06-14T06:02:48;100185.53;;;16.79;86.33
57904;BME280;43720;47.462;19.030;2023-06-14T06:05:54;100184.62;;;16.81;82.67
57904;BME280;43720;47.462;19.030;2023-06-14T06:09:04;100187.16;;;16.89;85.46
57904;BME280;43720;47.462;19.030;2023-06-14T06:12:07;100175.44;;;17.07;83.50
57904;BME280;43720;47.462;19.030;2023-06-14T06:15:09;100184.16;;;17.12;82.00
57904;BME280;43720;47.462;19.030;2023-06-14T06:18:20;100186.66;;;17.21;82.55
57904;BME280;43720;47.462;19.030;2023-06-14T06:21:22;100183.09;;;17.24;83.87
57904;BME280;43720;47.462;19.030;2023-06-14T06:24:24;100176.00;;;17.27;82.96
57904;BME280;43720;47.462;19.030;2023-06-14T06:27:27;100186.47;;;17.33;81.34
57904;BME280;43720;47.462;19.030;2023-06-14T06:30:29;100189.75;;;17.48;81.26
57904;BME280;43720;47.462;19.030;2023-06-14T06:33:32;100187.03;;;17.52;80.89
57904;BME280;43720;47.462;19.030;2023-06-14T06:36:34;100192.09;;;17.65;81.40
57904;BME280;43720;47.462;19.030;2023-06-14T06:39:37;100187.66;;;17.67;79.23
57904;BME280;43720;47.462;19.030;2023-06-14T06:42:39;100181.28;;;17.81;77.36
57904;BME280;43720;47.462;19.030;2023-06-14T06:45:45;100185.56;;;17.87;78.08
57904;BME280;43720;47.462;19.030;2023-06-14T06:48:47;100185.38;;;17.98;79.44
57904;BME280;43720;47.462;19.030;2023-06-14T06:52:03;100184.94;;;18.19;78.68
57904;BME280;43720;47.462;19.030;2023-06-14T06:55:06;100182.38;;;18.16;75.39
57904;BME280;43720;47.462;19.030;2023-06-14T06:58:09;100193.31;;;17.96;77.69
57904;BME280;43720;47.462;19.030;2023-06-14T07:01:12;100192.44;;;17.96;77.83
57904;BME280;43720;47.462;19.030;2023-06-14T07:04:15;100185.28;;;18.02;77.41
57904;BME280;43720;47.462;19.030;2023-06-14T07:07:18;100190.16;;;18.22;77.53
57904;BME280;43720;47.462;19.030;2023-06-14T07:10:21;100188.41;;;18.23;76.55
57904;BME280;43720;47.462;19.030;2023-06-14T07:13:23;100184.78;;;18.27;77.04
57904;BME280;43720;47.462;19.030;2023-06-14T07:16:26;100177.81;;;18.24;77.72
57904;BME280;43720;47.462;19.030;2023-06-14T07:19:29;100182.87;;;18.33;77.77
57904;BME280;43720;47.462;19.030;2023-06-14T07:22:33;100190.34;;;18.56;75.18
57904;BME280;43720;47.462;19.030;2023-06-14T07:25:35;100192.91;;;18.61;75.35
57904;BME280;43720;47.462;19.030;2023-06-14T07:28:38;100185.91;;;18.58;74.18
57904;BME280;43720;47.462;19.030;2023-06-14T07:31:40;100181.50;;;18.59;74.10
57904;BME280;43720;47.462;19.030;2023-06-14T07:34:42;100183.28;;;18.57;74.02
57904;BME280;43720;47.462;19.030;2023-06-14T07:37:45;100190.47;;;18.50;74.25
57904;BME280;43720;47.462;19.030;2023-06-14T07:40:49;100187.13;;;18.42;72.61
57904;BME280;43720;47.462;19.030;2023-06-14T07:43:51;100190.63;;;18.44;75.09
57904;BME280;43720;47.462;19.030;2023-06-14T07:46:56;100201.06;;;18.50;76.95
57904;BME280;43720;47.462;19.030;2023-06-14T07:50:00;100194.13;;;18.45;72.96
57904;BME280;43720;47.462;19.030;2023-06-14T07:53:02;100198.66;;;18.40;73.17
57904;BME280;43720;47.462;19.030;2023-06-14T07:56:06;100205.97;;;18.69;71.97
57904;BME280;43720;47.462;19.030;2023-06-14T07:59:08;100206.75;;;18.75;73.49
57904;BME280;43720;47.462;19.030;2023-06-14T08:02:11;100199.56;;;18.80;71.67
57904;BME280;43720;47.462;19.030;2023-06-14T08:05:13;100204.69;;;18.88;71.72
57904;BME280;43720;47.462;19.030;2023-06-14T08:08:16;100202.03;;;18.88;68.34
57904;BME280;43720;47.462;19.030;2023-06-14T08:11:19;100213.16;;;19.05;69.82
57904;BME280;43720;47.462;19.030;2023-06-14T08:14:21;100212.63;;;19.27;69.97
57904;BME280;43720;47.462;19.030;2023-06-14T08:17:24;100200.84;;;19.40;70.46
57904;BME280;43720;47.462;19.030;2023-06-14T08:20:26;100200.56;;;19.51;70.20
57904;BME280;43720;47.462;19.030;2023-06-14T08:23:29;100197.00;;;19.52;68.96
57904;BME280;43720;47.462;19.030;2023-06-14T08:26:31;100197.72;;;19.23;66.10
57904;BME280;43720;47.462;19.030;2023-06-14T08:29:34;100204.62;;;19.30;68.12
57904;BME280;43720;47.462;19.030;2023-06-14T08:32:36;100204.03;;;19.17;66.85
57904;BME280;43720;47.462;19.030;2023-06-14T08:35:39;100208.19;;;19.29;69.05
57904;BME280;43720;47.462;19.030;2023-06-14T08:38:42;100221.00;;;19.46;70.85
57904;BME280;43720;47.462;19.030;2023-06-14T08:41:47;100221.94;;;19.43;72.18
57904;BME280;43720;47.462;19.030;2023-06-14T08:44:53;100225.19;;;19.56;70.37
57904;BME280;43720;47.462;19.030;2023-06-14T08:47:56;100221.28;;;19.72;68.95
57904;BME280;43720;47.462;19.030;2023-06-14T08:51:05;100222.00;;;19.79;66.68
57904;BME280;43720;47.462;19.030;2023-06-14T08:54:11;100226.38;;;19.80;68.87
57904;BME280;43720;47.462;19.030;2023-06-14T08:57:14;100228.19;;;19.78;69.23
57904;BME280;43720;47.462;19.030;2023-06-14T09:00:18;100233.59;;;19.75;70.16
57904;BME280;43720;47.462;19.030;2023-06-14T09:03:23;100241.63;;;19.70;69.33
57904;BME280;43720;47.462;19.030;2023-06-14T09:06:32;100241.63;;;19.70;66.02
57904;BME280;43720;47.462;19.030;2023-06-14T09:09:38;100239.47;;;19.86;65.81
57904;BME280;43720;47.462;19.030;2023-06-14T09:12:41;100235.75;;;19.93;64.86
57904;BME280;43720;47.462;19.030;2023-06-14T09:15:44;100242.69;;;19.99;65.24
57904;BME280;43720;47.462;19.030;2023-06-14T09:18:47;100238.97;;;20.06;64.47
57904;BME280;43720;47.462;19.030;2023-06-14T09:21:50;100240.37;;;20.19;65.73
57904;BME280;43720;47.462;19.030;2023-06-14T09:24:55;100241.28;;;20.18;63.99
57904;BME280;43720;47.462;19.030;2023-06-14T09:27:57;100239.44;;;20.22;64.47
57904;BME280;43720;47.462;19.030;2023-06-14T09:31:00;100237.09;;;20.10;61.87
57904;BME280;43720;47.462;19.030;2023-06-14T09:34:03;100230.34;;;19.98;60.47
57904;BME280;43720;47.462;19.030;2023-06-14T09:37:06;100236.41;;;20.03;63.49
57904;BME280;43720;47.462;19.030;2023-06-14T09:40:08;100230.37;;;19.96;63.82
57904;BME280;43720;47.462;19.030;2023-06-14T09:43:12;100231.16;;;20.00;63.60
57904;BME280;43720;47.462;19.030;2023-06-14T09:46:14;100215.09;;;20.04;62.25
57904;BME280;43720;47.462;19.030;2023-06-14T09:49:19;100216.41;;;20.21;63.56
57904;BME280;43720;47.462;19.030;2023-06-14T09:52:22;100218.16;;;20.55;62.94
57904;BME280;43720;47.462;19.030;2023-06-14T09:55:30;100210.81;;;20.64;57.73
57904;BME280;43720;47.462;19.030;2023-06-14T09:58:37;100208.72;;;20.74;56.90
57904;BME280;43720;47.462;19.030;2023-06-14T10:01:42;100210.75;;;20.66;58.03
57904;BME280;43720;47.462;19.030;2023-06-14T10:05:14;100208.16;;;20.64;59.59
57904;BME280;43720;47.462;19.030;2023-06-14T10:08:16;100210.53;;;20.73;61.02
57904;BME280;43720;47.462;19.030;2023-06-14T10:11:20;100212.94;;;21.11;61.34
57904;BME280;43720;47.462;19.030;2023-06-14T10:14:23;100214.53;;;21.44;57.52
57904;BME280;43720;47.462;19.030;2023-06-14T10:17:35;100214.88;;;21.60;55.82
57904;BME280;43720;47.462;19.030;2023-06-14T10:20:51;100206.09;;;21.83;56.54
57904;BME280;43720;47.462;19.030;2023-06-14T10:23:59;100201.94;;;22.01;53.01
57904;BME280;43720;47.462;19.030;2023-06-14T10:27:03;100202.81;;;22.02;56.24
57904;BME280;43720;47.462;19.030;2023-06-14T10:30:14;100202.72;;;22.30;56.32
57904;BME280;43720;47.462;19.030;2023-06-14T10:33:17;100196.72;;;22.48;52.33
57904;BME280;43720;47.462;19.030;2023-06-14T10:36:27;100192.78;;;22.58;51.58
57904;BME280;43720;47.462;19.030;2023-06-14T10:39:31;100193.56;;;22.60;49.32
57904;BME280;43720;47.462;19.030;2023-06-14T10:42:33;100194.28;;;22.65;49.93
57904;BME280;43720;47.462;19.030;2023-06-14T10:45:36;100191.47;;;22.68;46.95
57904;BME280;43720;47.462;19.030;2023-06-14T10:48:42;100175.34;;;22.73;45.84
57904;BME280;43720;47.462;19.030;2023-06-14T10:51:50;100182.69;;;22.66;44.83
57904;BME280;43720;47.462;19.030;2023-06-14T10:55:11;100185.06;;;22.74;45.81
57904;BME280;43720;47.462;19.030;2023-06-14T10:58:36;100181.91;;;23.10;44.89
57904;BME280;43720;47.462;19.030;2023-06-14T11:05:08;100175.31;;;23.40;42.71
57904;BME280;43720;47.462;19.030;2023-06-14T11:11:56;100156.78;;;24.77;38.09
57904;BME280;43720;47.462;19.030;2023-06-14T11:14:59;100152.13;;;25.36;36.79
57904;BME280;43720;47.462;19.030;2023-06-14T11:18:05;100153.59;;;26.46;37.36
57904;BME280;43720;47.462;19.030;2023-06-14T11:21:08;100153.56;;;27.11;34.18
57904;BME280;43720;47.462;19.030;2023-06-14T11:24:10;100154.12;;;28.06;33.06
57904;BME280;43720;47.462;19.030;2023-06-14T11:27:14;100145.50;;;27.71;33.70
57904;BME280;43720;47.462;19.030;2023-06-14T11:30:17;100151.75;;;28.44;32.57
57904;BME280;43720;47.462;19.030;2023-06-14T11:33:22;100145.53;;;28.44;31.78
57904;BME280;43720;47.462;19.030;2023-06-14T11:36:29;100149.37;;;28.54;31.36
57904;BME280;43720;47.462;19.030;2023-06-14T11:39:34;100143.66;;;28.30;28.81
57904;BME280;43720;47.462;19.030;2023-06-14T11:42:38;100134.75;;;27.71;30.84
57904;BME280;43720;47.462;19.030;2023-06-14T11:45:42;100140.47;;;27.81;32.31
57904;BME280;43720;47.462;19.030;2023-06-14T11:48:52;100140.41;;;27.36;32.44
57904;BME280;43720;47.462;19.030;2023-06-14T11:51:56;100145.56;;;26.44;35.99
57904;BME280;43720;47.462;19.030;2023-06-14T11:54:58;100146.00;;;26.70;35.29
57904;BME280;43720;47.462;19.030;2023-06-14T11:58:01;100142.88;;;26.62;34.19
57904;BME280;43720;47.462;19.030;2023-06-14T12:01:03;100148.25;;;26.77;36.24
57904;BME280;43720;47.462;19.030;2023-06-14T12:04:06;100145.13;;;26.53;36.30
57904;BME280;43720;47.462;19.030;2023-06-14T12:07:12;100145.75;;;26.25;36.36
57904;BME280;43720;47.462;19.030;2023-06-14T12:10:17;100151.56;;;26.16;35.06
57904;BME280;43720;47.462;19.030;2023-06-14T12:13:20;100155.06;;;26.01;34.48
57904;BME280;43720;47.462;19.030;2023-06-14T12:16:30;100149.69;;;25.31;34.77
57904;BME280;43720;47.462;19.030;2023-06-14T12:19:33;100152.09;;;24.63;38.27
57904;BME280;43720;47.462;19.030;2023-06-14T12:22:35;100145.16;;;24.01;37.94
57904;BME280;43720;47.462;19.030;2023-06-14T12:25:38;100148.19;;;23.92;41.48
57904;BME280;43720;47.462;19.030;2023-06-14T12:28:46;100151.50;;;23.78;39.57
57904;BME280;43720;47.462;19.030;2023-06-14T12:31:49;100155.56;;;23.44;38.42
57904;BME280;43720;47.462;19.030;2023-06-14T12:34:51;100147.22;;;23.74;36.42
57904;BME280;43720;47.462;19.030;2023-06-14T12:37:53;100151.28;;;24.43;38.45
57904;BME280;43720;47.462;19.030;2023-06-14T12:41:28;100157.47;;;25.00;40.09
57904;BME280;43720;47.462;19.030;2023-06-14T12:44:31;100154.44;;;25.26;38.73
57904;BME280;43720;47.462;19.030;2023-06-14T12:47:36;100154.59;;;24.85;38.75
57904;BME280;43720;47.462;19.030;2023-06-14T12:50:38;100139.28;;;24.70;39.64
57904;BME280;43720;47.462;19.030;2023-06-14T12:53:41;100161.69;;;24.49;39.25
57904;BME280;43720;47.462;19.030;2023-06-14T12:56:47;100160.03;;;24.46;37.64
57904;BME280;43720;47.462;19.030;2023-06-14T12:59:49;100158.72;;;24.15;37.55
57904;BME280;43720;47.462;19.030;2023-06-14T13:02:51;100154.28;;;23.96;38.58
57904;BME280;43720;47.462;19.030;2023-06-14T13:05:54;100153.88;;;23.84;39.82
57904;BME280;43720;47.462;19.030;2023-06-14T13:08:57;100139.91;;;23.57;39.40
57904;BME280;43720;47.462;19.030;2023-06-14T13:12:01;100144.75;;;23.27;41.02
57904;BME280;43720;47.462;19.030;2023-06-14T13:15:04;100148.84;;;22.92;41.68
57904;BME280;43720;47.462;19.030;2023-06-14T13:18:06;100152.44;;;22.91;43.12
57904;BME280;43720;47.462;19.030;2023-06-14T13:21:09;100148.25;;;22.84;45.79
57904;BME280;43720;47.462;19.030;2023-06-14T13:24:11;100159.31;;;22.51;44.79
57904;BME280;43720;47.462;19.030;2023-06-14T13:27:14;100152.81;;;22.58;44.80
57904;BME280;43720;47.462;19.030;2023-06-14T13:30:17;100161.22;;;22.48;45.80
57904;BME280;43720;47.462;19.030;2023-06-14T13:33:20;100153.78;;;22.56;44.33
57904;BME280;43720;47.462;19.030;2023-06-14T13:36:22;100154.31;;;22.65;44.41
57904;BME280;43720;47.462;19.030;2023-06-14T13:39:25;100156.28;;;22.60;44.82
57904;BME280;43720;47.462;19.030;2023-06-14T13:42:28;100151.16;;;22.78;45.53
57904;BME280;43720;47.462;19.030;2023-06-14T13:45:33;100151.41;;;22.71;45.01
57904;BME280;43720;47.462;19.030;2023-06-14T13:48:35;100146.22;;;22.90;47.10
57904;BME280;43720;47.462;19.030;2023-06-14T13:51:38;100137.84;;;23.22;44.40
57904;BME280;43720;47.462;19.030;2023-06-14T13:54:40;100138.09;;;23.37;44.63
57904;BME280;43720;47.462;19.030;2023-06-14T13:57:44;100134.84;;;23.51;45.10
57904;BME280;43720;47.462;19.030;2023-06-14T14:00:47;100134.25;;;23.23;44.78
57904;BME280;43720;47.462;19.030;2023-06-14T14:03:49;100139.16;;;22.89;44.61
57904;BME280;43720;47.462;19.030;2023-06-14T14:06:52;100137.97;;;22.75;44.76
57904;BME280;43720;47.462;19.030;2023-06-14T14:09:54;100138.41;;;22.86;44.99
57904;BME280;43720;47.462;19.030;2023-06-14T14:12:59;100140.19;;;22.85;45.10
57904;BME280;43720;47.462;19.030;2023-06-14T14:16:02;100137.09;;;22.74;44.32
57904;BME280;43720;47.462;19.030;2023-06-14T14:19:05;100137.59;;;22.62;43.94
57904;BME280;43720;47.462;19.030;2023-06-14T14:22:09;100133.00;;;22.65;45.04
57904;BME280;43720;47.462;19.030;2023-06-14T14:25:11;100136.56;;;22.64;44.75
57904;BME280;43720;47.462;19.030;2023-06-14T14:28:14;100138.66;;;22.56;46.36
57904;BME280;43720;47.462;19.030;2023-06-14T14:31:18;100137.12;;;22.51;44.88
57904;BME280;43720;47.462;19.030;2023-06-14T14:34:20;100138.66;;;22.56;45.74
57904;BME280;43720;47.462;19.030;2023-06-14T14:37:23;100140.47;;;22.32;43.03
57904;BME280;43720;47.462;19.030;2023-06-14T14:40:25;100140.50;;;22.07;43.85
57904;BME280;43720;47.462;19.030;2023-06-14T14:43:31;100138.25;;;21.95;44.12
57904;BME280;43720;47.462;19.030;2023-06-14T14:46:34;100139.38;;;21.89;44.89
57904;BME280;43720;47.462;19.030;2023-06-14T14:49:37;100130.72;;;22.08;44.78
57904;BME280;43720;47.462;19.030;2023-06-14T14:52:39;100137.66;;;22.12;44.20
57904;BME280;43720;47.462;19.030;2023-06-14T14:55:42;100141.44;;;22.30;45.22
57904;BME280;43720;47.462;19.030;2023-06-14T14:58:45;100133.00;;;22.18;43.53
57904;BME280;43720;47.462;19.030;2023-06-14T15:01:47;100139.25;;;22.17;44.05
57904;BME280;43720;47.462;19.030;2023-06-14T15:04:50;100136.38;;;22.24;45.74
57904;BME280;43720;47.462;19.030;2023-06-14T15:07:52;100137.00;;;22.30;45.36
57904;BME280;43720;47.462;19.030;2023-06-14T15:10:54;100137.00;;;22.30;48.11
57904;BME280;43720;47.462;19.030;2023-06-14T15:13:57;100133.06;;;22.17;46.08
57904;BME280;43720;47.462;19.030;2023-06-14T15:16:59;100128.06;;;22.08;46.11
57904;BME280;43720;47.462;19.030;2023-06-14T15:20:04;100131.87;;;22.01;45.75
57904;BME280;43720;47.462;19.030;2023-06-14T15:23:08;100126.06;;;21.89;45.76
57904;BME280;43720;47.462;19.030;2023-06-14T15:26:10;100132.34;;;21.87;48.75
57904;BME280;43720;47.462;19.030;2023-06-14T15:29:12;100127.03;;;21.87;45.34
57904;BME280;43720;47.462;19.030;2023-06-14T15:32:15;100132.28;;;21.65;44.23
